createdAt,value
2019-03-19T00:00:38.337Z,101270.00
2019-03-19T00:11:23.566Z,101315.00
2019-03-19T00:22:05.493Z,101341.00
2019-03-19T00:32:49.919Z,101363.00
2019-03-19T00:43:32.183Z,101397.00
2019-03-19T00:54:12.763Z,101392.00
2019-03-19T01:04:57.072Z,101404.00
2019-03-19T01:15:34.602Z,101437.00
2019-03-19T01:26:17.999Z,101440.00
2019-03-19T01:37:03.026Z,101467.00
2019-03-19T01:47:47.703Z,101491.00
2019-03-19T01:58:31.790Z,101515.00
2019-03-19T02:09:16.528Z,101532.00
2019-03-19T02:19:58.159Z,101535.00
2019-03-19T02:30:41.391Z,101559.00
2019-03-19T02:41:26.039Z,101575.00
2019-03-19T02:52:09.568Z,101604.00
2019-03-19T03:02:53.053Z,101632.00
2019-03-19T03:13:37.093Z,101645.00
2019-03-19T03:24:21.081Z,101660.00
2019-03-19T03:35:05.188Z,101714.00
2019-03-19T03:45:43.964Z,101743.00
2019-03-19T03:56:29.001Z,101750.00
2019-03-19T04:07:13.472Z,101767.00
2019-03-19T04:17:56.963Z,101763.00
2019-03-19T04:28:39.870Z,101756.00
2019-03-19T04:39:23.917Z,101781.00
2019-03-19T04:50:06.800Z,101803.00
2019-03-19T05:00:48.623Z,101824.00
2019-03-19T05:11:32.842Z,101820.00
2019-03-19T05:22:14.980Z,101850.00
2019-03-19T05:32:59.077Z,101863.00
2019-03-19T05:43:36.755Z,101880.00
2019-03-19T05:54:19.606Z,101891.00
2019-03-19T06:05:02.641Z,101895.00
2019-03-19T06:15:45.257Z,101892.00
2019-03-19T06:26:25.478Z,101854.00
2019-03-19T06:37:07.560Z,101836.00
2019-03-19T06:47:50.751Z,101820.00
2019-03-19T06:58:33.778Z,101781.00
2019-03-19T07:09:16.641Z,101738.00
2019-03-19T07:19:59.178Z,101676.00
2019-03-19T07:30:42.888Z,101622.00
2019-03-19T07:41:17.886Z,101546.00
2019-03-19T07:52:02.814Z,101435.00
2019-03-19T08:02:40.804Z,101359.00
2019-03-19T08:13:20.676Z,101292.00
2019-03-19T08:24:04.108Z,101234.00
2019-03-19T08:34:47.302Z,101138.00
2019-03-19T08:45:32.316Z,101022.00
2019-03-19T08:56:17.312Z,100977.00
2019-03-19T09:06:54.545Z,100900.00
2019-03-19T09:17:38.558Z,100812.00
2019-03-19T09:28:22.165Z,100810.00
2019-03-19T09:39:04.050Z,100706.00
2019-03-19T09:49:48.812Z,100655.00
2019-03-19T10:00:24.938Z,100643.00
2019-03-19T10:11:09.754Z,100626.00
2019-03-19T10:21:52.295Z,100637.00
2019-03-19T10:32:36.308Z,100656.00
2019-03-19T10:43:20.740Z,100589.00
2019-03-19T10:54:03.829Z,100481.00
2019-03-19T11:04:47.140Z,100428.00
2019-03-19T11:15:31.620Z,100421.00
2019-03-19T11:26:14.445Z,100360.00
2019-03-19T11:36:58.325Z,100342.00
2019-03-19T11:47:43.217Z,100351.00
2019-03-19T11:58:26.676Z,100303.00
2019-03-19T12:09:07.870Z,100254.00
2019-03-19T12:19:48.931Z,100178.00
2019-03-19T12:30:26.499Z,100163.00
2019-03-19T12:41:06.220Z,100034.00
2019-03-19T12:51:47.162Z,99980.00
2019-03-19T13:02:26.456Z,99865.00
2019-03-19T13:13:06.033Z,99702.00
2019-03-19T13:23:40.060Z,99657.00
2019-03-19T13:34:12.457Z,99781.00
2019-03-19T13:44:48.178Z,99633.00
2019-03-19T13:55:28.474Z,99536.00
2019-03-19T14:06:05.891Z,99661.00
2019-03-19T14:16:43.137Z,99665.00
2019-03-19T14:27:23.196Z,99645.00
2019-03-19T14:38:06.299Z,99634.00
2019-03-19T14:48:44.682Z,99542.00
2019-03-19T14:59:26.163Z,99509.00
2019-03-19T15:10:05.401Z,99410.00
2019-03-19T15:20:43.918Z,99390.00
2019-03-19T15:31:17.266Z,99552.00
2019-03-19T15:41:57.021Z,99630.00
2019-03-19T15:52:36.677Z,99681.00
2019-03-19T16:03:18.957Z,99615.00
2019-03-19T16:14:01.521Z,99566.00
2019-03-19T16:24:39.887Z,99495.00
2019-03-19T16:35:22.287Z,99561.00
2019-03-19T16:46:03.083Z,99579.00
2019-03-19T16:56:41.922Z,99516.00
2019-03-19T17:07:14.719Z,99651.00
2019-03-19T17:17:50.218Z,99722.00
2019-03-19T17:28:26.140Z,99785.00
2019-03-19T17:39:03.563Z,99878.00
2019-03-19T17:49:34.047Z,99976.00
2019-03-19T18:00:09.059Z,100064.00
2019-03-19T18:10:47.821Z,100163.00
2019-03-19T18:21:23.860Z,100277.00
2019-03-19T18:31:57.630Z,100384.00
2019-03-19T18:42:37.554Z,100552.00
2019-03-19T18:53:13.324Z,100640.00
2019-03-19T19:03:40.421Z,100696.00
2019-03-19T19:14:14.318Z,100650.00
2019-03-19T19:24:54.312Z,100771.00
2019-03-19T19:35:25.733Z,100938.00
2019-03-19T19:46:04.120Z,100988.00
2019-03-19T19:56:37.442Z,101053.00
2019-03-19T20:07:13.147Z,101118.00
2019-03-19T20:17:49.435Z,101147.00
2019-03-19T20:28:23.623Z,101188.00
2019-03-19T20:39:03.883Z,101248.00
2019-03-19T20:49:35.626Z,101288.00
2019-03-19T21:00:08.790Z,101338.00
2019-03-19T21:10:48.656Z,101359.00
2019-03-19T21:21:25.554Z,101419.00
2019-03-19T21:32:03.655Z,101461.00
2019-03-19T21:42:42.685Z,101483.00
2019-03-19T21:53:19.429Z,101553.00
2019-03-19T22:04:03.059Z,101574.00
2019-03-19T22:14:32.287Z,101611.00
2019-03-19T22:25:07.896Z,101658.00
2019-03-19T22:35:39.935Z,101653.00
2019-03-19T22:46:21.839Z,101678.00
2019-03-19T22:56:44.110Z,101703.00
2019-03-19T23:07:18.933Z,101747.00
2019-03-19T23:17:52.236Z,101769.00
2019-03-19T23:19:05.157Z,101769.00
2019-03-19T23:29:34.757Z,101755.00
2019-03-19T23:40:12.662Z,101825.00
2019-03-19T23:50:51.804Z,101846.00
